createdAt,value
2019-06-07T00:00:47.792Z,99.40
2019-06-07T00:02:49.271Z,99.50
2019-06-07T00:04:51.208Z,99.20
2019-06-07T00:06:52.791Z,99.30
2019-06-07T00:08:54.006Z,99.30
2019-06-07T00:10:55.287Z,99.50
2019-06-07T00:12:56.804Z,99.80
2019-06-07T00:14:58.327Z,99.90
2019-06-07T00:16:59.614Z,99.90
2019-06-07T00:19:00.892Z,99.80
2019-06-07T00:21:02.642Z,99.40
2019-06-07T00:23:03.990Z,99.20
2019-06-07T00:25:05.905Z,99.10
2019-06-07T00:27:08.303Z,99.00
2019-06-07T00:29:11.746Z,99.10
2019-06-07T00:31:14.917Z,99.40
2019-06-07T00:33:19.256Z,99.60
2019-06-07T00:35:22.070Z,99.30
2019-06-07T00:37:25.597Z,99.40
2019-06-07T00:39:26.887Z,99.40
2019-06-07T00:41:28.156Z,99.30
2019-06-07T00:43:29.454Z,99.40
2019-06-07T00:45:32.090Z,99.70
2019-06-07T00:47:33.254Z,99.90
2019-06-07T00:49:41.131Z,99.90
2019-06-07T00:51:50.064Z,99.90
2019-06-07T00:53:40.983Z,99.90
2019-06-07T00:55:42.525Z,99.90
2019-06-07T00:57:43.797Z,99.90
2019-06-07T00:59:45.085Z,99.90
2019-06-07T01:01:46.460Z,99.90
2019-06-07T01:03:47.733Z,99.90
2019-06-07T01:05:49.021Z,99.90
2019-06-07T01:07:50.401Z,99.90
2019-06-07T01:09:51.666Z,99.90
2019-06-07T01:11:53.227Z,99.90
2019-06-07T01:13:54.465Z,99.90
2019-06-07T01:15:55.821Z,99.90
2019-06-07T01:18:33.581Z,99.90
2019-06-07T01:20:01.798Z,99.90
2019-06-07T01:22:03.325Z,99.90
2019-06-07T01:24:12.135Z,99.90
2019-06-07T01:26:07.832Z,99.90
2019-06-07T01:28:09.098Z,99.90
2019-06-07T01:30:11.451Z,99.90
2019-06-07T01:32:12.978Z,99.90
2019-06-07T01:34:14.481Z,99.90
2019-06-07T01:36:17.896Z,99.90
2019-06-07T01:38:21.919Z,99.90
2019-06-07T01:40:28.854Z,99.90
2019-06-07T01:42:30.498Z,99.90
2019-06-07T01:44:31.074Z,99.90
2019-06-07T01:46:32.545Z,99.90
2019-06-07T01:48:48.930Z,99.90
2019-06-07T01:50:37.241Z,99.90
2019-06-07T01:52:38.653Z,99.90
2019-06-07T01:54:56.646Z,99.90
2019-06-07T01:56:43.406Z,99.90
2019-06-07T01:58:44.929Z,99.90
2019-06-07T02:00:46.246Z,99.90
2019-06-07T02:02:47.544Z,99.90
2019-06-07T02:04:48.959Z,99.90
2019-06-07T02:06:50.221Z,99.90
2019-06-07T02:08:51.602Z,99.90
2019-06-07T02:10:53.262Z,99.90
2019-06-07T02:12:54.466Z,99.90
2019-06-07T02:14:55.987Z,99.90
2019-06-07T02:16:57.259Z,99.90
2019-06-07T02:19:02.053Z,99.90
2019-06-07T02:21:02.017Z,99.90
2019-06-07T02:23:03.313Z,99.90
2019-06-07T02:25:34.963Z,99.90
2019-06-07T02:27:08.641Z,99.90
2019-06-07T02:29:09.970Z,99.90
2019-06-07T02:31:11.495Z,99.90
2019-06-07T02:33:12.876Z,99.90
2019-06-07T02:35:14.367Z,99.90
2019-06-07T02:37:15.891Z,99.90
2019-06-07T02:39:17.329Z,99.90
2019-06-07T02:41:18.962Z,99.90
2019-06-07T02:43:22.072Z,99.90
2019-06-07T02:45:24.769Z,99.90
2019-06-07T02:47:28.727Z,99.90
2019-06-07T02:49:36.255Z,99.90
2019-06-07T02:51:40.732Z,99.90
2019-06-07T02:53:40.028Z,99.90
2019-06-07T02:56:33.333Z,99.90
2019-06-07T02:57:43.465Z,99.90
2019-06-07T03:00:05.564Z,99.90
2019-06-07T03:01:48.238Z,99.90
2019-06-07T03:03:49.728Z,99.90
2019-06-07T03:05:51.013Z,99.90
2019-06-07T03:07:52.493Z,99.90
2019-06-07T03:09:54.503Z,99.90
2019-06-07T03:11:56.847Z,99.90
2019-06-07T03:13:59.701Z,99.90
2019-06-07T03:16:03.477Z,99.90
2019-06-07T03:18:06.647Z,99.90
2019-06-07T03:20:16.213Z,99.90
2019-06-07T03:22:17.750Z,99.90
2019-06-07T03:24:22.626Z,99.90
2019-06-07T03:26:25.047Z,99.90
2019-06-07T03:28:30.001Z,99.90
2019-06-07T03:30:52.750Z,99.90
2019-06-07T03:32:45.702Z,99.90
2019-06-07T03:34:40.989Z,99.90
2019-06-07T03:36:41.165Z,99.90
2019-06-07T03:38:42.481Z,99.90
2019-06-07T03:40:43.750Z,99.90
2019-06-07T03:42:46.090Z,99.90
2019-06-07T03:44:47.350Z,99.90
2019-06-07T03:46:48.628Z,99.90
2019-06-07T03:48:51.071Z,99.90
2019-06-07T03:51:04.064Z,99.90
2019-06-07T03:52:56.509Z,99.90
2019-06-07T03:54:57.778Z,99.90
2019-06-07T03:56:59.078Z,99.90
2019-06-07T03:59:00.704Z,99.90
2019-06-07T04:01:02.269Z,99.90
2019-06-07T04:03:03.522Z,99.90
2019-06-07T04:05:05.592Z,99.90
2019-06-07T04:07:06.867Z,99.90
2019-06-07T04:09:08.142Z,99.90
2019-06-07T04:11:09.538Z,99.90
2019-06-07T04:13:10.971Z,99.90
2019-06-07T04:15:12.406Z,99.90
2019-06-07T04:17:14.191Z,99.90
2019-06-07T04:19:16.500Z,99.90
2019-06-07T04:21:17.770Z,99.90
2019-06-07T04:23:29.862Z,99.90
2019-06-07T04:25:22.717Z,99.90
2019-06-07T04:27:24.225Z,99.90
2019-06-07T04:29:32.834Z,99.90
2019-06-07T04:31:32.101Z,99.90
2019-06-07T04:33:35.026Z,99.90
2019-06-07T04:35:40.011Z,99.90
2019-06-07T04:37:41.619Z,99.90
2019-06-07T04:39:44.919Z,99.90
2019-06-07T04:41:48.658Z,99.90
2019-06-07T04:43:50.358Z,99.90
2019-06-07T04:45:52.656Z,99.90
2019-06-07T04:47:55.685Z,99.90
2019-06-07T04:50:00.608Z,99.90
2019-06-07T04:52:03.889Z,99.90
2019-06-07T04:54:05.280Z,99.90
2019-06-07T04:56:06.556Z,99.90
2019-06-07T04:58:07.993Z,99.90
2019-06-07T05:00:46.321Z,99.90
2019-06-07T05:02:12.645Z,99.90
2019-06-07T05:04:14.048Z,99.90
2019-06-07T05:06:15.677Z,99.90
2019-06-07T05:08:27.536Z,99.90
2019-06-07T05:10:20.135Z,99.90
2019-06-07T05:12:21.502Z,99.90
2019-06-07T05:14:23.021Z,99.90
2019-06-07T05:16:24.303Z,99.90
2019-06-07T05:18:25.683Z,99.90
2019-06-07T05:20:27.034Z,99.90
2019-06-07T05:22:30.784Z,99.90
2019-06-07T05:24:37.690Z,99.90
2019-06-07T05:26:37.732Z,99.90
2019-06-07T05:28:42.301Z,99.90
2019-06-07T05:32:46.084Z,99.90
2019-06-07T05:34:47.705Z,99.90
2019-06-07T05:37:10.359Z,99.90
2019-06-07T05:38:52.513Z,99.90
2019-06-07T05:40:53.770Z,99.90
2019-06-07T05:42:55.289Z,99.90
2019-06-07T05:44:56.557Z,99.90
2019-06-07T05:46:57.832Z,99.90
2019-06-07T05:48:59.118Z,99.90
2019-06-07T05:51:01.486Z,99.90
2019-06-07T05:53:03.058Z,99.90
2019-06-07T05:55:04.305Z,99.90
2019-06-07T05:57:05.832Z,99.90
2019-06-07T05:59:07.113Z,99.90
2019-06-07T06:01:42.082Z,99.90
2019-06-07T06:03:12.026Z,99.90
2019-06-07T06:05:32.562Z,99.90
2019-06-07T06:07:16.529Z,99.90
2019-06-07T06:09:18.079Z,99.90
2019-06-07T06:11:19.223Z,99.90
2019-06-07T06:13:20.497Z,99.90
2019-06-07T06:15:41.757Z,99.90
2019-06-07T06:17:25.453Z,99.90
2019-06-07T06:19:26.726Z,99.90
2019-06-07T06:21:28.260Z,99.90
2019-06-07T06:23:29.497Z,99.90
2019-06-07T06:25:33.423Z,99.90
2019-06-07T06:29:38.709Z,99.90
2019-06-07T06:31:50.629Z,99.90
2019-06-07T06:33:45.241Z,99.90
2019-06-07T06:35:49.422Z,99.90
2019-06-07T06:37:53.207Z,99.90
2019-06-07T06:39:54.554Z,99.90
2019-06-07T06:42:03.221Z,99.90
2019-06-07T06:43:59.002Z,99.90
2019-06-07T06:46:00.313Z,99.90
2019-06-07T06:48:01.581Z,99.90
2019-06-07T06:50:07.469Z,99.90
2019-06-07T06:52:09.014Z,99.90
2019-06-07T06:54:10.156Z,99.90
2019-06-07T06:56:11.433Z,99.90
2019-06-07T06:58:12.782Z,99.90
2019-06-07T07:00:14.470Z,99.90
2019-06-07T07:02:15.872Z,99.90
2019-06-07T07:04:18.833Z,99.90
2019-06-07T07:06:26.186Z,99.90
2019-06-07T07:08:24.638Z,99.90
2019-06-07T07:10:38.391Z,99.90
2019-06-07T07:12:40.639Z,99.90
2019-06-07T07:14:44.372Z,99.90
2019-06-07T07:16:49.663Z,99.90
2019-06-07T07:18:51.629Z,99.90
2019-06-07T07:20:56.755Z,99.90
2019-06-07T07:22:57.191Z,99.90
2019-06-07T07:24:58.847Z,99.90
2019-06-07T07:26:59.994Z,99.90
2019-06-07T07:29:01.268Z,99.90
2019-06-07T07:31:02.582Z,99.90
2019-06-07T07:33:05.599Z,99.90
2019-06-07T07:35:07.201Z,99.90
2019-06-07T07:37:08.495Z,99.90
2019-06-07T07:39:10.036Z,99.90
2019-06-07T07:41:15.577Z,98.70
2019-06-07T07:43:14.511Z,98.20
2019-06-07T07:45:16.024Z,99.40
2019-06-07T07:47:17.363Z,98.30
2019-06-07T07:49:18.745Z,98.70
2019-06-07T07:51:20.415Z,99.50
2019-06-07T07:53:22.212Z,99.10
2019-06-07T07:55:24.211Z,98.20
2019-06-07T07:57:25.797Z,98.00
2019-06-07T07:59:41.081Z,98.20
2019-06-07T08:01:30.374Z,97.90
2019-06-07T08:03:31.777Z,97.50
2019-06-07T08:05:42.405Z,97.30
2019-06-07T08:07:36.576Z,97.30
2019-06-07T08:09:38.121Z,96.00
2019-06-07T08:11:40.755Z,95.70
2019-06-07T08:13:41.900Z,94.80
2019-06-07T08:15:44.197Z,96.10
2019-06-07T08:17:47.263Z,94.80
2019-06-07T08:19:49.959Z,94.30
2019-06-07T08:21:53.051Z,93.90
2019-06-07T08:23:58.419Z,94.90
2019-06-07T08:26:01.120Z,94.90
2019-06-07T08:28:01.829Z,94.40
2019-06-07T08:30:46.564Z,94.10
2019-06-07T08:32:11.849Z,93.70
2019-06-07T08:34:13.377Z,94.30
2019-06-07T08:36:21.824Z,94.40
2019-06-07T08:38:29.784Z,94.10
2019-06-07T08:40:22.850Z,93.00
2019-06-07T08:42:36.566Z,93.30
2019-06-07T08:44:27.378Z,93.50
2019-06-07T08:46:28.750Z,93.00
2019-06-07T08:48:30.529Z,92.70
2019-06-07T08:51:08.191Z,93.00
2019-06-07T08:55:48.963Z,92.90
2019-06-07T08:57:53.680Z,91.40
2019-06-07T08:59:55.713Z,92.20
2019-06-07T09:01:59.731Z,91.80
2019-06-07T09:04:07.751Z,93.20
2019-06-07T09:06:16.329Z,91.20
2019-06-07T09:08:28.545Z,90.80
2019-06-07T09:10:15.206Z,90.00
2019-06-07T09:12:16.857Z,91.30
2019-06-07T09:14:18.533Z,92.20
2019-06-07T09:16:20.157Z,91.60
2019-06-07T09:18:40.946Z,91.20
2019-06-07T09:20:48.772Z,91.20
2019-06-07T09:22:50.341Z,91.30
2019-06-07T09:24:51.972Z,90.50
2019-06-07T09:26:53.162Z,87.50
2019-06-07T09:28:56.195Z,87.10
2019-06-07T09:31:02.636Z,88.50
2019-06-07T09:33:05.299Z,89.60
2019-06-07T09:35:12.414Z,87.70
2019-06-07T09:38:03.140Z,85.90
2019-06-07T09:39:13.349Z,87.10
2019-06-07T09:41:15.038Z,85.30
2019-06-07T09:43:59.911Z,85.90
2019-06-07T09:45:19.862Z,84.70
2019-06-07T09:47:31.771Z,83.80
2019-06-07T09:49:32.590Z,82.40
2019-06-07T09:51:28.956Z,82.20
2019-06-07T09:53:30.262Z,81.10
2019-06-07T09:55:31.865Z,82.00
2019-06-07T09:57:33.032Z,82.10
2019-06-07T09:59:34.616Z,80.70
2019-06-07T10:01:35.897Z,80.90
2019-06-07T10:03:37.165Z,78.10
2019-06-07T10:05:38.458Z,78.10
2019-06-07T10:07:51.515Z,79.00
2019-06-07T10:11:48.457Z,79.50
2019-06-07T10:13:49.762Z,79.00
2019-06-07T10:15:53.657Z,75.10
2019-06-07T10:17:54.217Z,75.80
2019-06-07T10:19:55.492Z,75.90
2019-06-07T10:21:57.017Z,76.20
2019-06-07T10:23:59.282Z,71.70
2019-06-07T10:26:01.611Z,74.80
2019-06-07T10:28:03.825Z,72.70
2019-06-07T10:30:06.297Z,72.80
2019-06-07T10:32:09.159Z,72.80
2019-06-07T10:34:10.878Z,72.30
2019-06-07T10:36:12.350Z,71.80
2019-06-07T10:38:13.620Z,71.70
2019-06-07T10:40:16.094Z,72.70
2019-06-07T10:42:17.420Z,72.20
2019-06-07T10:44:19.689Z,72.00
2019-06-07T10:46:21.197Z,73.20
2019-06-07T10:48:25.002Z,71.30
2019-06-07T10:50:25.996Z,72.60
2019-06-07T10:52:31.166Z,70.90
2019-06-07T10:54:33.053Z,68.90
2019-06-07T10:56:34.359Z,68.20
2019-06-07T10:58:35.714Z,70.10
2019-06-07T11:00:36.973Z,68.30
2019-06-07T11:02:38.351Z,67.40
2019-06-07T11:04:39.646Z,69.90
2019-06-07T11:06:40.985Z,67.40
2019-06-07T11:08:42.339Z,66.00
2019-06-07T11:10:43.651Z,67.20
2019-06-07T11:12:44.988Z,67.30
2019-06-07T11:14:46.250Z,67.90
2019-06-07T11:16:47.853Z,66.30
2019-06-07T11:18:49.177Z,65.50
2019-06-07T11:20:50.441Z,66.30
2019-06-07T11:22:52.196Z,67.50
2019-06-07T11:24:53.473Z,65.50
2019-06-07T11:26:55.305Z,67.10
2019-06-07T11:28:56.602Z,63.80
2019-06-07T11:30:58.126Z,63.50
2019-06-07T11:32:59.760Z,63.50
2019-06-07T11:35:03.064Z,61.30
2019-06-07T11:37:04.408Z,62.10
2019-06-07T11:39:06.551Z,61.60
2019-06-07T11:41:08.066Z,61.70
2019-06-07T11:43:10.666Z,61.80
2019-06-07T11:45:12.890Z,63.40
2019-06-07T11:47:16.076Z,65.00
2019-06-07T11:49:20.241Z,62.70
2019-06-07T11:51:20.842Z,60.90
2019-06-07T11:53:22.140Z,61.60
2019-06-07T11:55:24.743Z,60.90
2019-06-07T11:57:26.012Z,59.50
2019-06-07T11:59:27.560Z,62.10
2019-06-07T12:01:29.209Z,60.80
2019-06-07T12:03:30.558Z,62.40
2019-06-07T12:05:31.763Z,60.40
2019-06-07T12:07:33.039Z,62.10
2019-06-07T12:09:34.432Z,61.20
2019-06-07T12:11:35.787Z,60.90
2019-06-07T12:13:37.170Z,59.20
2019-06-07T12:15:38.841Z,57.10
2019-06-07T12:17:40.272Z,58.10
2019-06-07T12:19:41.539Z,57.30
2019-06-07T12:21:42.908Z,56.50
2019-06-07T12:23:44.518Z,58.20
2019-06-07T12:25:47.688Z,59.00
2019-06-07T12:27:48.970Z,58.40
2019-06-07T12:29:50.462Z,54.20
2019-06-07T12:31:51.736Z,60.10
2019-06-07T12:33:52.894Z,61.60
2019-06-07T12:35:54.142Z,60.30
2019-06-07T12:37:55.398Z,56.00
2019-06-07T12:39:56.912Z,58.30
2019-06-07T12:41:58.182Z,57.10
2019-06-07T12:43:59.494Z,54.90
2019-06-07T12:46:00.691Z,53.30
2019-06-07T12:48:02.041Z,53.10
2019-06-07T12:50:05.116Z,56.10
2019-06-07T12:52:08.281Z,54.70
2019-06-07T12:54:09.549Z,55.10
2019-06-07T12:56:10.686Z,54.70
2019-06-07T12:58:12.226Z,53.20
2019-06-07T13:00:14.268Z,52.20
2019-06-07T13:02:16.345Z,51.00
2019-06-07T13:04:18.478Z,50.80
2019-06-07T13:06:19.815Z,50.50
2019-06-07T13:08:22.045Z,52.60
2019-06-07T13:10:24.046Z,51.70
2019-06-07T13:12:25.409Z,52.50
2019-06-07T13:14:26.564Z,53.30
2019-06-07T13:16:28.445Z,50.90
2019-06-07T13:18:30.213Z,50.20
2019-06-07T13:20:31.644Z,49.70
2019-06-07T13:22:33.341Z,49.20
2019-06-07T13:24:34.664Z,50.50
2019-06-07T13:26:36.377Z,48.50
2019-06-07T13:28:37.663Z,48.50
2019-06-07T13:30:39.296Z,51.10
2019-06-07T13:32:40.994Z,48.70
2019-06-07T13:34:42.402Z,51.50
2019-06-07T13:36:43.543Z,51.50
2019-06-07T13:38:44.821Z,49.90
2019-06-07T13:40:46.006Z,50.20
2019-06-07T13:42:47.401Z,50.90
2019-06-07T13:44:48.902Z,50.50
2019-06-07T13:46:50.079Z,49.30
2019-06-07T13:48:51.368Z,51.00
2019-06-07T13:50:52.552Z,48.00
2019-06-07T13:52:53.878Z,49.30
2019-06-07T13:54:55.260Z,50.20
2019-06-07T13:57:02.039Z,49.20
2019-06-07T13:59:00.718Z,48.80
2019-06-07T14:01:02.098Z,49.00
2019-06-07T14:03:03.779Z,46.60
2019-06-07T14:05:06.851Z,48.90
2019-06-07T14:07:08.100Z,47.30
2019-06-07T14:09:09.244Z,45.80
2019-06-07T14:11:10.806Z,48.20
2019-06-07T14:13:12.166Z,47.30
2019-06-07T14:15:13.646Z,48.00
2019-06-07T14:17:15.290Z,44.60
2019-06-07T14:19:16.517Z,45.60
2019-06-07T14:21:17.796Z,45.20
2019-06-07T14:23:37.945Z,46.00
2019-06-07T14:25:25.159Z,46.00
2019-06-07T14:27:27.594Z,44.00
2019-06-07T14:29:30.020Z,44.20
2019-06-07T14:31:32.241Z,46.90
2019-06-07T14:33:34.040Z,45.80
2019-06-07T14:35:35.667Z,44.60
2019-06-07T14:37:36.993Z,46.60
2019-06-07T14:39:38.348Z,46.70
2019-06-07T14:41:39.575Z,46.70
2019-06-07T14:43:41.031Z,46.10
2019-06-07T14:45:42.689Z,45.60
2019-06-07T14:47:43.957Z,46.20
2019-06-07T14:49:45.097Z,44.70
2019-06-07T14:51:46.635Z,44.70
2019-06-07T14:53:48.139Z,43.60
2019-06-07T14:55:49.423Z,43.50
2019-06-07T14:57:50.989Z,43.10
2019-06-07T14:59:52.274Z,43.20
2019-06-07T15:01:53.980Z,43.70
2019-06-07T15:03:55.281Z,45.90
2019-06-07T15:05:59.784Z,44.00
2019-06-07T15:08:01.319Z,44.20
2019-06-07T15:10:47.311Z,43.30
2019-06-07T15:12:50.969Z,43.70
2019-06-07T15:14:52.972Z,43.40
2019-06-07T15:16:54.350Z,42.40
2019-06-07T15:18:55.883Z,43.80
2019-06-07T15:20:57.433Z,43.40
2019-06-07T15:22:58.794Z,45.10
2019-06-07T15:25:00.269Z,44.30
2019-06-07T15:27:03.736Z,43.80
2019-06-07T15:29:05.168Z,44.00
2019-06-07T15:31:06.587Z,43.00
2019-06-07T15:33:07.857Z,43.10
2019-06-07T15:35:09.320Z,42.40
2019-06-07T15:37:10.477Z,43.20
2019-06-07T15:39:11.787Z,42.10
2019-06-07T15:41:13.055Z,41.90
2019-06-07T15:43:14.342Z,42.60
2019-06-07T15:45:16.224Z,42.00
2019-06-07T15:47:17.898Z,42.80
2019-06-07T15:49:20.041Z,41.80
2019-06-07T15:51:21.766Z,40.80
2019-06-07T15:53:23.045Z,41.60
2019-06-07T15:55:25.319Z,42.90
2019-06-07T15:57:26.898Z,43.90
2019-06-07T15:59:28.170Z,43.70
2019-06-07T16:01:29.381Z,41.70
2019-06-07T16:03:31.481Z,40.70
2019-06-07T16:05:34.241Z,40.80
2019-06-07T16:07:36.243Z,41.80
2019-06-07T16:09:38.483Z,43.50
2019-06-07T16:11:41.457Z,43.00
2019-06-07T16:13:43.426Z,43.60
2019-06-07T16:15:44.915Z,44.50
2019-06-07T16:17:46.057Z,44.40
2019-06-07T16:19:47.469Z,45.40
2019-06-07T16:21:48.872Z,46.90
2019-06-07T16:23:50.328Z,46.50
2019-06-07T16:25:51.952Z,46.30
2019-06-07T16:27:53.103Z,49.60
2019-06-07T16:29:54.706Z,50.40
2019-06-07T16:31:56.105Z,49.70
2019-06-07T16:33:57.490Z,49.00
2019-06-07T16:35:58.856Z,49.90
2019-06-07T16:38:01.564Z,49.90
2019-06-07T16:40:05.162Z,50.70
2019-06-07T16:42:08.230Z,50.70
2019-06-07T16:44:09.696Z,50.90
2019-06-07T16:46:11.046Z,52.40
2019-06-07T16:48:12.366Z,52.90
2019-06-07T16:50:13.942Z,53.10
2019-06-07T16:52:15.219Z,54.60
2019-06-07T16:54:16.486Z,55.10
2019-06-07T16:56:17.798Z,55.00
2019-06-07T16:58:19.138Z,54.60
2019-06-07T17:00:21.920Z,54.60
2019-06-07T17:02:23.206Z,55.20
2019-06-07T17:04:24.490Z,56.00
2019-06-07T17:06:25.779Z,56.30
2019-06-07T17:08:27.387Z,57.20
2019-06-07T17:10:28.743Z,55.80
2019-06-07T17:12:29.916Z,56.90
2019-06-07T17:14:32.175Z,55.30
2019-06-07T17:16:33.527Z,54.30
2019-06-07T17:18:37.055Z,54.50
2019-06-07T17:20:39.029Z,52.60
2019-06-07T17:22:41.955Z,53.00
2019-06-07T17:24:43.934Z,51.90
2019-06-07T17:26:45.559Z,52.00
2019-06-07T17:28:47.740Z,53.10
2019-06-07T17:30:50.346Z,51.70
2019-06-07T17:32:59.022Z,52.50
2019-06-07T17:34:55.128Z,52.40
2019-06-07T17:36:56.273Z,53.20
2019-06-07T17:38:57.577Z,53.50
2019-06-07T17:40:58.925Z,54.80
2019-06-07T17:43:00.432Z,56.50
2019-06-07T17:45:04.462Z,55.80
2019-06-07T17:47:05.811Z,56.70
2019-06-07T17:49:07.450Z,57.60
2019-06-07T17:51:08.735Z,57.70
2019-06-07T17:53:10.249Z,58.50
2019-06-07T17:55:11.867Z,58.80
2019-06-07T17:57:13.149Z,59.20
2019-06-07T17:59:14.438Z,59.60
2019-06-07T18:01:16.156Z,60.10
2019-06-07T18:03:18.275Z,60.20
2019-06-07T18:05:20.137Z,60.70
2019-06-07T18:07:23.165Z,60.10
2019-06-07T18:09:24.840Z,60.70
2019-06-07T18:11:26.473Z,59.90
2019-06-07T18:13:27.994Z,61.30
2019-06-07T18:15:36.106Z,62.00
2019-06-07T18:17:37.393Z,62.80
2019-06-07T18:19:38.798Z,63.10
2019-06-07T18:21:40.282Z,63.70
2019-06-07T18:23:41.902Z,64.60
2019-06-07T18:25:43.179Z,64.50
2019-06-07T18:27:44.555Z,65.20
2019-06-07T18:29:46.495Z,66.40
2019-06-07T18:31:48.700Z,67.70
2019-06-07T18:33:50.948Z,68.00
2019-06-07T18:35:53.322Z,68.80
2019-06-07T18:37:55.164Z,70.20
2019-06-07T18:39:56.722Z,71.00
2019-06-07T18:41:59.478Z,76.50
2019-06-07T18:44:01.117Z,76.90
2019-06-07T18:46:02.406Z,81.70
2019-06-07T18:48:04.730Z,90.10
2019-06-07T18:50:07.906Z,94.00
2019-06-07T18:52:16.728Z,98.20
2019-06-07T18:54:18.115Z,98.40
2019-06-07T18:56:19.376Z,98.40
2019-06-07T18:58:20.650Z,99.90
2019-06-07T19:00:24.329Z,99.90
2019-06-07T19:02:25.691Z,99.90
2019-06-07T19:04:26.987Z,99.90
2019-06-07T19:06:28.518Z,99.90
2019-06-07T19:08:31.072Z,99.90
2019-06-07T19:10:32.228Z,99.90
2019-06-07T19:12:33.739Z,99.90
2019-06-07T19:14:37.430Z,99.90
2019-06-07T19:16:38.462Z,99.90
2019-06-07T19:18:39.851Z,99.90
2019-06-07T19:20:41.494Z,99.90
2019-06-07T19:22:42.989Z,99.90
2019-06-07T19:24:44.585Z,99.90
2019-06-07T19:26:45.741Z,99.90
2019-06-07T19:28:47.270Z,99.90
2019-06-07T19:30:48.432Z,99.90
2019-06-07T19:32:51.323Z,99.90
2019-06-07T19:34:53.241Z,99.90
2019-06-07T19:36:55.661Z,99.90
2019-06-07T19:38:57.972Z,99.90
2019-06-07T19:41:16.530Z,99.90
2019-06-07T19:43:03.887Z,99.90
2019-06-07T19:45:28.980Z,99.90
2019-06-07T19:47:09.639Z,99.90
2019-06-07T19:49:10.794Z,99.90
2019-06-07T19:51:12.328Z,99.90
2019-06-07T19:53:13.466Z,99.90
2019-06-07T19:55:15.179Z,99.90
2019-06-07T19:57:16.524Z,99.90
2019-06-07T19:59:17.824Z,99.90
2019-06-07T20:01:19.085Z,99.90
2019-06-07T20:03:20.369Z,99.90
2019-06-07T20:05:22.213Z,99.90
2019-06-07T20:07:24.031Z,99.90
2019-06-07T20:09:26.895Z,99.90
2019-06-07T20:11:28.338Z,99.90
2019-06-07T20:13:31.936Z,99.90
2019-06-07T20:15:33.391Z,99.90
2019-06-07T20:17:34.850Z,99.90
2019-06-07T20:19:36.188Z,99.90
2019-06-07T20:21:37.529Z,99.90
2019-06-07T20:23:38.823Z,99.90
2019-06-07T20:25:40.321Z,99.90
2019-06-07T20:27:41.850Z,99.90
2019-06-07T20:29:42.997Z,99.90
2019-06-07T20:31:44.374Z,99.90
2019-06-07T20:33:45.805Z,99.90
2019-06-07T20:35:47.087Z,99.90
2019-06-07T20:37:48.377Z,99.90
2019-06-07T20:39:50.081Z,99.90
2019-06-07T20:41:51.601Z,99.90
2019-06-07T20:43:52.857Z,99.90
2019-06-07T20:45:54.398Z,99.90
2019-06-07T20:47:55.528Z,99.90
2019-06-07T20:49:57.899Z,99.90
2019-06-07T20:52:00.470Z,99.90
2019-06-07T20:54:05.558Z,99.90
2019-06-07T20:56:09.313Z,99.90
2019-06-07T20:58:12.266Z,99.90
2019-06-07T21:00:21.108Z,99.90
2019-06-07T21:02:16.953Z,99.90
2019-06-07T21:04:18.515Z,99.90
2019-06-07T21:06:19.756Z,99.90
2019-06-07T21:08:21.300Z,99.90
2019-06-07T21:10:22.598Z,99.90
2019-06-07T21:12:23.861Z,99.90
2019-06-07T21:14:25.393Z,99.90
2019-06-07T21:16:26.594Z,99.90
2019-06-07T21:18:27.913Z,99.90
2019-06-07T21:20:29.433Z,99.90
2019-06-07T21:22:30.720Z,99.90
2019-06-07T21:24:32.325Z,99.90
2019-06-07T21:26:33.867Z,99.90
2019-06-07T21:28:35.001Z,99.90
2019-06-07T21:30:36.265Z,99.90
2019-06-07T21:32:37.818Z,99.90
2019-06-07T21:34:39.085Z,99.90
2019-06-07T21:36:40.416Z,99.90
2019-06-07T21:38:42.957Z,99.90
2019-06-07T21:40:44.115Z,99.90
2019-06-07T21:42:47.713Z,99.90
2019-06-07T21:44:48.976Z,99.90
2019-06-07T21:46:50.256Z,99.90
2019-06-07T21:48:51.518Z,99.90
2019-06-07T21:50:52.808Z,99.90
2019-06-07T21:52:54.494Z,99.90
2019-06-07T21:54:55.641Z,99.90
2019-06-07T21:56:57.182Z,99.90
2019-06-07T21:58:58.754Z,99.90
2019-06-07T22:01:04.696Z,99.90
2019-06-07T22:03:09.383Z,99.90
2019-06-07T22:05:11.711Z,99.90
2019-06-07T22:07:13.783Z,99.90
2019-06-07T22:09:15.335Z,99.90
2019-06-07T22:11:16.489Z,99.90
2019-06-07T22:13:17.999Z,99.90
2019-06-07T22:15:33.153Z,99.90
2019-06-07T22:17:22.505Z,99.90
2019-06-07T22:19:23.787Z,99.90
2019-06-07T22:21:25.263Z,99.90
2019-06-07T22:23:26.896Z,99.90
2019-06-07T22:25:28.285Z,99.90
2019-06-07T22:27:29.561Z,99.90
2019-06-07T22:29:31.127Z,99.90
2019-06-07T22:31:32.280Z,99.90
2019-06-07T22:33:33.579Z,99.90
2019-06-07T22:35:34.838Z,99.90
2019-06-07T22:37:36.358Z,99.90
2019-06-07T22:39:37.625Z,99.90
2019-06-07T22:41:40.889Z,99.90
2019-06-07T22:43:42.161Z,99.90
2019-06-07T22:45:43.459Z,99.90
2019-06-07T22:47:44.986Z,99.90
2019-06-07T22:49:46.376Z,99.90
2019-06-07T22:51:47.662Z,99.90
2019-06-07T22:53:49.188Z,99.90
2019-06-07T22:55:52.722Z,99.90
2019-06-07T22:57:55.586Z,99.90
2019-06-07T22:59:57.852Z,99.90
2019-06-07T23:01:59.480Z,99.90
2019-06-07T23:04:00.738Z,99.90
2019-06-07T23:06:02.132Z,99.90
2019-06-07T23:08:03.514Z,99.90
2019-06-07T23:10:05.133Z,99.90
2019-06-07T23:12:06.365Z,99.90
2019-06-07T23:14:07.633Z,99.90
2019-06-07T23:16:09.446Z,99.90
2019-06-07T23:18:11.426Z,99.90
2019-06-07T23:20:15.830Z,99.90
2019-06-07T23:22:17.946Z,99.90
2019-06-07T23:24:20.122Z,99.90
2019-06-07T23:26:22.566Z,99.90
2019-06-07T23:28:24.077Z,99.90
2019-06-07T23:30:25.617Z,99.90
2019-06-07T23:32:26.995Z,99.90
2019-06-07T23:34:28.576Z,99.90
2019-06-07T23:36:30.032Z,99.90
2019-06-07T23:38:31.597Z,99.90
2019-06-07T23:40:32.856Z,99.90
2019-06-07T23:42:34.197Z,99.90
2019-06-07T23:44:35.467Z,99.90
2019-06-07T23:46:36.837Z,99.90
2019-06-07T23:48:38.107Z,99.90
2019-06-07T23:50:39.373Z,99.90
2019-06-07T23:52:40.640Z,99.90
2019-06-07T23:54:41.898Z,99.90
2019-06-07T23:56:43.167Z,99.90
2019-06-07T23:58:44.448Z,99.90
